createdAt,value
2023-01-13T01:08:10.023Z,11.01
2023-01-13T01:18:51.561Z,11.23
2023-01-13T02:13:26.828Z,10.99
2023-01-13T05:30:59.035Z,11.56
2023-01-13T13:13:27.620Z,11.88
2023-01-13T13:16:36.966Z,11.58
2023-01-13T13:19:46.704Z,11.60
2023-01-13T13:22:38.434Z,11.74
2023-01-13T13:25:29.058Z,11.41
2023-01-13T13:28:35.106Z,11.07
2023-01-13T13:31:24.193Z,11.28
2023-01-13T13:34:12.741Z,11.11
2023-01-13T13:37:02.084Z,11.16
2023-01-13T13:39:53.126Z,10.76
2023-01-13T13:42:43.984Z,9.99
2023-01-13T15:37:32.200Z,9.78
2023-01-13T15:40:13.822Z,9.78
2023-01-13T15:43:03.611Z,9.92
2023-01-13T15:45:54.056Z,10.02
2023-01-13T15:48:33.698Z,10.01
2023-01-13T15:51:20.180Z,9.99
2023-01-13T15:54:14.464Z,10.00
2023-01-13T15:56:44.058Z,9.98
2023-01-13T15:59:22.896Z,9.88
2023-01-13T16:01:55.618Z,9.97
2023-01-13T16:04:24.837Z,9.98
2023-01-13T16:06:54.211Z,9.89
2023-01-13T16:09:26.266Z,9.87
2023-01-13T16:11:55.744Z,9.96
2023-01-13T16:14:27.299Z,9.45
2023-01-13T16:17:00.134Z,9.86
2023-01-13T16:19:31.440Z,9.66
2023-01-13T16:22:00.702Z,9.87
2023-01-13T16:24:32.267Z,9.90
2023-01-13T16:27:28.743Z,9.62
2023-01-13T16:29:57.418Z,9.88
2023-01-13T16:32:26.093Z,10.02
2023-01-13T16:34:57.349Z,9.95
2023-01-13T16:37:29.255Z,9.94
2023-01-13T16:39:59.158Z,10.04
2023-01-13T16:42:28.811Z,9.72
2023-01-13T16:45:00.104Z,9.77
2023-01-13T16:47:29.599Z,9.94
2023-01-13T16:50:00.697Z,9.97
2023-01-13T16:52:32.464Z,9.91
2023-01-13T16:55:03.248Z,9.87
